Southaven, MS

4:34 PM CDT en Septiembre 17, 2014 (GMT -0500)
Tunica | Change Station
CLOSE
Current Station
Aeropuerto
Location: Tunica,
Altura: 194 ft
Estaciones meteorológicas cercanas

Alt 194 ft 34.68 °N, 90.35 °W | Updated 19 minutes ago

Nublado
Nublado
79 ° F
Sensación térmica 79 ° F
N
6
Viento Variable Viento desde Norte

Hoy
Alta -- | Baja -- ° F
--% Posibilidad de precipitaciones
Ayer
Alta -- | Baja -- ° F
Precip. -- pul
6:44 AM 7:03 PM
Creciente menguante, 33% visible
Presión 29.96 pul
Visibilidad 10.0 Millas
Nubes Nublado 2900 ft
Punto de rocío 66 ° F
Humedad 65%
Precipitaciones 0.00 pul
Espesor de la nieve No disponible.
UV 1 de una escala de 12
Polen 8.50 de una escala de 12
Ozono Buena
PM2.5 Buena
Flu Activity No disponible.
METAR KUTA 172115Z AUTO 36005KT 10SM OVC029 26/19 A2996 RMK AO2

More Conditions Fewer Conditions

Presión 29.96 pul
Visibilidad 10.0 Millas
Nubes Nublado 2900 ft
Punto de rocío 66 ° F
Humedad 65%
Precipitaciones 0.00 pul
Espesor de la nieve No disponible.
UV 1 de una escala de 12
Polen 8.50 de una escala de 12
Ozono Buena
PM2.5 Buena
Flu Activity No disponible.
METAR KUTA 172115Z AUTO 36005KT 10SM OVC029 26/19 A2996 RMK AO2

More Conditions Fewer Conditions

10-Day Weather Forecast

Almanac

Astronomía

Sep. 17, 2014 Salida Puesta
Hora real 6:44 AM CDT 7:03 PM CDT
Crepúsculo civil 6:19 AM CDT 7:29 PM CDT
Crepúsculo náutico 5:49 AM CDT 7:58 PM CDT
Crepúsculo astronómico 5:19 AM CDT 8:28 PM CDT
Luna 12:54 AM CDT 3:04 PM CDT
Horas de luz 13h 10m
Horas de luz
12h 19m
Tomorrow will be 2m 10s shorter.
Creciente menguante, 33% of the Moon is Illuminated
Hoy
Creciente menguante
Sep 24
Nueva
Oct 1
Cuarto creciente
Oct 8
Luna llena
Oct 15
Cuarto menguante

Extremos de hoy

Máximos del estado Bajos del estado

Community

WunderPhotos

Upload Photos

1,754,170 ¡fotos cargadas!

Nearby

Calidad del aire

  Calidad del aire Índice AQ Contaminante
Ayer Buena
PM2.5
Ayer Buena
OZONE
Real Buena
PM2.5
Real Buena
OZONE
Miércoles Moderada
PM2.5
Miércoles Buena
OZONE
Jueves Buena
PM2.5
Jueves Buena
OZONE
Viernes Moderada
PM2.5
Viernes Buena
OZONE

Grosos de nieve

Estación Profundido Altura
No tenemos constancia de nieve nueva.

Actividad de terremotos

Ciudad Distance Mag. Tiempo y dato
No hay informes recientes de la actividad sísmica.
Magnitud mínima muestra es 2,5.

Temperaturas de aguas costeras

Lugar Temperatura
Sin partes meteorológicos de las estaciones

Estaciones meteorológicas cercanas